Terminal Aerodrome Forecast
Issued by NWS

Home | Current Version | Previous Version | Text Only | Print | Product List | Glossary On
Versions: 1 2 3 4 5 6 7 8 9 10 11 12 13 14 15 16 17 18 19 20 21 22 23 24
000
FTUS43 KDLH 232155 AAC
TAFHIB
TAF AMD
KHIB 232155Z 2322/2418 32014G24KT P6SM VCSH OVC015
      TEMPO 2322/2324 4SM -SHRA BR BKN009 OVC015
     FM240000 33014G25KT P6SM -SHRA OVC025
     FM240300 35016G24KT P6SM OVC030
     FM241300 35018G27KT P6SM BKN035=

USA.gov is the U.S. government's official web portal to all federal, state and local government web resources and services.